Five Points, New Mexico
Current Conditions -  °F | °C
As of 9:55 PM on Tuesday 25 Nov 2014 (Local Time) from KAEG Reporting Station
Clear Clear  
Wind Chill: 27°   Ceiling: Unl
Heat Index: 27°   Visibility: 10mi
Dew Point:   Wind: 0mph
Humidity: 34%   Direction: NA
Pressure: 30.3"   Gusts: NA
Location:  35.1341°N, 106.888°W
Report Text: KAEG 260455Z AUTO 00000KT 10SM CLR M03/M17 A3030 RMK AO2 T10291168
Loading
Personal Weather Stations






























Interactive Weather Map New forecast layout! Learn more

10-Day Weather Forecast

Advertisements
Track Severe Weather on mobile